createdAt,value
2023-04-15T00:00:00.582Z,1.73
2023-04-15T00:05:00.617Z,1.78
2023-04-15T00:10:01.022Z,1.47
2023-04-15T00:15:00.493Z,1.33
2023-04-15T00:20:00.494Z,1.31
2023-04-15T00:25:00.502Z,1.62
2023-04-15T00:30:00.547Z,1.14
2023-04-15T00:35:00.366Z,1.20
2023-04-15T00:40:00.603Z,0.96
2023-04-15T00:45:00.674Z,0.92
2023-04-15T00:50:00.438Z,0.97
2023-04-15T00:55:00.494Z,1.03
2023-04-15T01:00:00.594Z,1.07
2023-04-15T01:05:00.350Z,0.87
2023-04-15T01:10:00.558Z,1.32
2023-04-15T01:15:00.620Z,1.15
2023-04-15T01:20:00.372Z,1.07
2023-04-15T01:25:00.695Z,0.77
2023-04-15T01:30:01.127Z,0.94
2023-04-15T01:35:00.302Z,1.34
2023-04-15T01:40:00.675Z,1.03
2023-04-15T01:45:02.555Z,0.93
2023-04-15T01:50:00.354Z,1.70
2023-04-15T01:55:00.643Z,1.53
2023-04-15T02:00:00.453Z,1.63
2023-04-15T02:05:00.496Z,2.79
2023-04-15T02:10:00.612Z,2.54
2023-04-15T02:15:00.531Z,2.04
2023-04-15T02:20:00.354Z,3.53
2023-04-15T02:25:00.541Z,2.35
2023-04-15T02:30:00.700Z,4.39
2023-04-15T02:35:00.363Z,2.14
2023-04-15T02:40:00.626Z,2.67
2023-04-15T02:45:00.440Z,2.29
2023-04-15T02:50:00.555Z,1.81
2023-04-15T02:55:00.581Z,1.43
2023-04-15T03:00:00.634Z,3.21
2023-04-15T03:05:00.359Z,2.98
2023-04-15T03:10:00.461Z,2.17
2023-04-15T03:15:00.612Z,2.39
2023-04-15T03:20:00.885Z,2.02
2023-04-15T03:25:00.630Z,3.72
2023-04-15T03:30:00.846Z,3.00
2023-04-15T03:35:00.336Z,1.44
2023-04-15T03:40:00.588Z,1.47
2023-04-15T03:45:00.428Z,1.29
2023-04-15T03:50:00.381Z,1.36
2023-04-15T03:55:00.520Z,1.46
2023-04-15T04:00:00.435Z,1.45
2023-04-15T04:05:00.509Z,1.43
2023-04-15T04:10:00.454Z,1.70
2023-04-15T04:15:00.583Z,1.35
2023-04-15T04:20:00.343Z,1.53
2023-04-15T04:25:00.479Z,3.09
2023-04-15T04:30:00.703Z,3.40
2023-04-15T04:35:00.333Z,1.42
2023-04-15T04:40:00.568Z,1.73
2023-04-15T04:45:00.475Z,1.31
2023-04-15T04:50:00.439Z,19.42
2023-04-15T04:55:00.441Z,1.42
2023-04-15T05:00:00.920Z,1.74
2023-04-15T05:05:00.319Z,1.99
2023-04-15T05:10:00.455Z,1.70
2023-04-15T05:15:00.588Z,1.49
2023-04-15T05:20:00.331Z,1.89
2023-04-15T05:25:00.502Z,1.54
2023-04-15T05:30:00.440Z,1.52
2023-04-15T05:35:00.478Z,1.17
2023-04-15T05:40:00.665Z,3.92
2023-04-15T05:45:00.438Z,2.49
2023-04-15T05:50:00.343Z,1.54
2023-04-15T05:55:00.715Z,1.63
2023-04-15T06:00:01.465Z,1.67
2023-04-15T06:05:00.553Z,2.61
2023-04-15T06:10:00.507Z,1.76
2023-04-15T06:15:00.538Z,2.06
2023-04-15T06:20:00.461Z,1.98
2023-04-15T06:25:00.561Z,1.81
2023-04-15T06:30:00.459Z,2.00
2023-04-15T06:35:00.352Z,1.91
2023-04-15T06:40:01.008Z,1.30
2023-04-15T06:45:00.408Z,2.01
2023-04-15T06:50:00.486Z,2.68
2023-04-15T06:55:00.477Z,2.01
2023-04-15T07:00:03.286Z,2.43
2023-04-15T07:05:00.349Z,2.02
2023-04-15T07:10:00.519Z,1.81
2023-04-15T07:15:00.388Z,2.63
2023-04-15T07:20:00.368Z,2.64
2023-04-15T07:25:00.473Z,3.01
2023-04-15T07:30:00.913Z,2.65
2023-04-15T07:35:00.320Z,2.98
2023-04-15T07:40:01.818Z,2.90
2023-04-15T07:45:00.422Z,3.64
2023-04-15T07:50:00.401Z,3.13
2023-04-15T07:55:00.471Z,2.77
2023-04-15T08:00:00.669Z,3.19
2023-04-15T08:05:00.371Z,3.32
2023-04-15T08:10:00.548Z,3.78
2023-04-15T08:15:00.515Z,4.14
2023-04-15T08:20:00.670Z,6.05
2023-04-15T08:25:00.557Z,5.76
2023-04-15T08:30:02.107Z,5.65
2023-04-15T08:35:00.389Z,4.87
2023-04-15T08:40:04.879Z,4.90
2023-04-15T08:45:00.421Z,5.70
2023-04-15T08:50:00.449Z,6.77
2023-04-15T08:55:00.526Z,7.02
2023-04-15T09:00:03.017Z,7.01
2023-04-15T09:05:00.341Z,8.00
2023-04-15T09:10:00.568Z,8.89
2023-04-15T09:15:00.423Z,8.40
2023-04-15T09:20:00.918Z,8.72
2023-04-15T09:25:00.408Z,7.87
2023-04-15T09:30:00.418Z,7.52
2023-04-15T09:35:00.496Z,8.03
2023-04-15T09:40:00.577Z,8.49
2023-04-15T09:45:00.373Z,8.60
2023-04-15T09:50:00.569Z,9.53
2023-04-15T09:55:00.476Z,10.48
2023-04-15T10:00:00.478Z,8.41
2023-04-15T10:05:00.535Z,9.02
2023-04-15T10:10:00.499Z,14.55
2023-04-15T10:15:00.439Z,12.49
2023-04-15T10:20:00.587Z,15.06
2023-04-15T10:25:00.372Z,10.40
2023-04-15T10:30:00.432Z,9.28
2023-04-15T10:35:00.476Z,24.46
2023-04-15T10:40:00.591Z,14.27
2023-04-15T10:45:00.413Z,26.56
2023-04-15T10:50:00.498Z,13.06
2023-04-15T10:55:00.471Z,10.19
2023-04-15T11:00:00.738Z,17.84
2023-04-15T11:05:00.903Z,13.22
2023-04-15T11:10:00.409Z,9.27
2023-04-15T11:15:00.457Z,10.38
2023-04-15T11:20:00.496Z,11.46
2023-04-15T11:25:00.454Z,12.72
2023-04-15T11:30:00.573Z,9.22
2023-04-15T11:35:00.555Z,9.99
2023-04-15T11:40:00.484Z,6.48
2023-04-15T11:45:00.391Z,19.63
2023-04-15T11:50:00.480Z,20.09
2023-04-15T11:55:00.420Z,8.18
2023-04-15T12:00:00.416Z,7.46
2023-04-15T12:05:00.516Z,5.98
2023-04-15T12:10:00.396Z,6.35
2023-04-15T12:15:00.486Z,4.94
2023-04-15T12:20:00.997Z,13.01
2023-04-15T12:25:00.384Z,6.72
2023-04-15T12:30:00.622Z,12.09
2023-04-15T12:35:00.410Z,13.58
2023-04-15T12:40:00.486Z,6.82
2023-04-15T12:45:00.430Z,7.09
2023-04-15T12:50:00.454Z,6.52
2023-04-15T12:55:00.436Z,13.12
2023-04-15T13:00:00.486Z,11.64
2023-04-15T13:05:01.060Z,7.82
2023-04-15T13:10:00.410Z,16.87
2023-04-15T13:15:00.396Z,17.51
2023-04-15T13:20:00.450Z,8.16
2023-04-15T13:25:00.466Z,9.25
2023-04-15T13:30:00.375Z,8.08
2023-04-15T13:35:00.585Z,7.23
2023-04-15T13:40:00.413Z,21.51
2023-04-15T13:45:00.481Z,7.75
2023-04-15T13:50:00.469Z,10.21
2023-04-15T13:55:07.403Z,7.76
2023-04-15T14:00:00.463Z,7.34
2023-04-15T14:05:00.478Z,8.93
2023-04-15T14:10:00.390Z,7.59
2023-04-15T14:15:00.511Z,8.93
2023-04-15T14:20:00.427Z,9.76
2023-04-15T14:25:00.416Z,9.47
2023-04-15T14:30:00.526Z,9.57
2023-04-15T14:35:00.346Z,9.19
2023-04-15T14:40:00.585Z,8.55
2023-04-15T14:45:00.628Z,7.90
2023-04-15T14:50:00.401Z,7.29
2023-04-15T14:55:00.668Z,6.24
2023-04-15T15:00:01.335Z,14.19
2023-04-15T15:05:00.466Z,8.12
2023-04-15T15:10:00.462Z,7.93
2023-04-15T15:15:01.570Z,9.23
2023-04-15T15:20:00.426Z,7.01
2023-04-15T15:25:00.466Z,31.80
2023-04-15T15:30:00.640Z,10.16
2023-04-15T15:35:00.383Z,8.00
2023-04-15T15:40:00.616Z,6.84
2023-04-15T15:45:00.585Z,7.98
2023-04-15T15:50:00.419Z,6.85
2023-04-15T15:55:00.366Z,7.15
2023-04-15T16:00:11.214Z,7.04
2023-04-15T16:05:00.703Z,7.43
2023-04-15T16:10:00.423Z,6.65
2023-04-15T16:15:00.512Z,5.89
2023-04-15T16:20:01.155Z,37.29
2023-04-15T16:25:00.423Z,6.53
2023-04-15T16:30:00.654Z,7.64
2023-04-15T16:35:00.397Z,7.23
2023-04-15T16:40:00.491Z,7.66
2023-04-15T16:45:00.510Z,7.43
2023-04-15T16:50:00.464Z,6.53
2023-04-15T16:55:00.348Z,8.23
2023-04-15T17:00:00.478Z,7.28
2023-04-15T17:05:00.565Z,13.37
2023-04-15T17:10:00.320Z,9.13
2023-04-15T17:15:00.477Z,27.64
2023-04-15T17:20:00.436Z,21.39
2023-04-15T17:25:00.478Z,13.69
2023-04-15T17:30:00.625Z,12.94
2023-04-15T17:35:00.517Z,9.32
2023-04-15T17:40:00.334Z,8.11
2023-04-15T17:45:00.563Z,9.56
2023-04-15T17:50:00.416Z,8.83
2023-04-15T17:55:00.458Z,10.83
2023-04-15T18:00:01.141Z,10.88
2023-04-15T18:05:00.765Z,11.06
2023-04-15T18:10:00.438Z,12.85
2023-04-15T18:15:00.612Z,15.17
2023-04-15T18:20:00.437Z,14.62
2023-04-15T18:25:00.449Z,13.94
2023-04-15T18:30:01.395Z,16.57
2023-04-15T18:35:00.505Z,15.35
2023-04-15T18:40:00.432Z,13.72
2023-04-15T18:45:00.828Z,12.73
2023-04-15T18:50:00.376Z,12.29
2023-04-15T18:55:00.378Z,13.02
2023-04-15T19:00:00.951Z,15.99
2023-04-15T19:05:00.355Z,15.06
2023-04-15T19:10:00.391Z,17.26
2023-04-15T19:15:00.516Z,16.66
2023-04-15T19:20:00.338Z,16.57
2023-04-15T19:25:00.389Z,17.76
2023-04-15T19:30:00.685Z,17.89
2023-04-15T19:35:00.334Z,18.00
2023-04-15T19:40:00.501Z,22.01
2023-04-15T19:45:00.597Z,25.81
2023-04-15T19:50:00.710Z,26.81
2023-04-15T19:55:00.339Z,25.00
2023-04-15T20:00:00.510Z,26.33
2023-04-15T20:05:00.364Z,27.21
2023-04-15T20:10:00.470Z,27.11
2023-04-15T20:15:00.860Z,30.62
2023-04-15T20:20:00.526Z,34.37
2023-04-15T20:25:00.488Z,36.80
2023-04-15T20:30:00.908Z,34.33
2023-04-15T20:35:00.392Z,32.93
2023-04-15T20:40:00.491Z,30.85
2023-04-15T20:45:00.534Z,27.54
2023-04-15T20:50:00.389Z,28.56
2023-04-15T20:55:00.332Z,28.35
2023-04-15T21:00:00.491Z,27.37
2023-04-15T21:05:00.330Z,32.22
2023-04-15T21:10:00.382Z,29.77
2023-04-15T21:15:00.608Z,30.26
2023-04-15T21:20:00.324Z,32.21
2023-04-15T21:25:00.476Z,31.56
2023-04-15T21:30:00.482Z,30.30
2023-04-15T21:35:00.622Z,27.12
2023-04-15T21:40:00.319Z,25.66
2023-04-15T21:45:00.564Z,28.90
2023-04-15T21:50:00.337Z,37.66
2023-04-15T21:55:00.464Z,40.70
2023-04-15T22:00:00.671Z,36.48
2023-04-15T22:05:00.421Z,36.98
2023-04-15T22:10:00.447Z,33.89
2023-04-15T22:15:00.589Z,35.97
2023-04-15T22:20:00.345Z,34.37
2023-04-15T22:25:00.402Z,34.63
2023-04-15T22:30:00.574Z,35.58
2023-04-15T22:35:00.454Z,34.22
2023-04-15T22:40:00.315Z,31.92
2023-04-15T22:45:00.546Z,32.30
2023-04-15T22:50:00.346Z,29.97
2023-04-15T22:55:00.411Z,33.67
2023-04-15T23:00:00.595Z,30.79
2023-04-15T23:05:00.550Z,32.11
2023-04-15T23:10:00.403Z,29.91
2023-04-15T23:15:00.617Z,28.03
2023-04-15T23:20:00.314Z,32.80
2023-04-15T23:25:00.492Z,31.25
2023-04-15T23:30:00.505Z,31.29
2023-04-15T23:35:00.410Z,29.70
2023-04-15T23:40:00.361Z,27.70
2023-04-15T23:45:00.465Z,29.01
2023-04-15T23:50:00.314Z,30.52
2023-04-15T23:55:00.386Z,30.27
